sensor_id;sensor_type;location;lat;lon;timestamp;P1;durP1;ratioP1;P2;durP2;ratioP2
71692;SDS011;59524;43.000;-0.216;2022-09-01T00:02:00;10.45;;;8.85;;
71692;SDS011;59524;43.000;-0.216;2022-09-01T00:04:34;12.43;;;9.60;;
71692;SDS011;59524;43.000;-0.216;2022-09-01T00:07:04;12.50;;;9.27;;
71692;SDS011;59524;43.000;-0.216;2022-09-01T00:09:31;12.93;;;8.65;;
71692;SDS011;59524;43.000;-0.216;2022-09-01T00:11:58;13.63;;;8.80;;
71692;SDS011;59524;43.000;-0.216;2022-09-01T00:14:27;12.88;;;8.77;;
71692;SDS011;59524;43.000;-0.216;2022-09-01T00:16:54;10.90;;;8.32;;
71692;SDS011;59524;43.000;-0.216;2022-09-01T00:19:21;10.45;;;8.15;;
71692;SDS011;59524;43.000;-0.216;2022-09-01T00:21:48;10.88;;;8.68;;
71692;SDS011;59524;43.000;-0.216;2022-09-01T00:24:15;11.18;;;8.88;;
71692;SDS011;59524;43.000;-0.216;2022-09-01T00:26:43;11.15;;;8.77;;
71692;SDS011;59524;43.000;-0.216;2022-09-01T00:29:10;19.70;;;8.93;;
71692;SDS011;59524;43.000;-0.216;2022-09-01T00:31:37;11.20;;;9.00;;
71692;SDS011;59524;43.000;-0.216;2022-09-01T00:34:03;10.18;;;8.20;;
71692;SDS011;59524;43.000;-0.216;2022-09-01T00:36:31;12.15;;;9.50;;
71692;SDS011;59524;43.000;-0.216;2022-09-01T00:38:58;12.50;;;9.63;;
71692;SDS011;59524;43.000;-0.216;2022-09-01T00:41:25;11.38;;;8.48;;
71692;SDS011;59524;43.000;-0.216;2022-09-01T00:43:53;12.68;;;8.50;;
71692;SDS011;59524;43.000;-0.216;2022-09-01T00:46:22;9.05;;;7.72;;
71692;SDS011;59524;43.000;-0.216;2022-09-01T00:48:50;10.23;;;7.13;;
71692;SDS011;59524;43.000;-0.216;2022-09-01T00:51:19;8.82;;;6.82;;
71692;SDS011;59524;43.000;-0.216;2022-09-01T00:53:46;10.88;;;7.53;;
71692;SDS011;59524;43.000;-0.216;2022-09-01T00:56:14;8.80;;;7.20;;
71692;SDS011;59524;43.000;-0.216;2022-09-01T00:58:40;7.30;;;6.03;;
71692;SDS011;59524;43.000;-0.216;2022-09-01T01:01:08;8.77;;;6.50;;
71692;SDS011;59524;43.000;-0.216;2022-09-01T01:03:35;8.45;;;6.53;;
71692;SDS011;59524;43.000;-0.216;2022-09-01T01:06:04;7.75;;;6.40;;
71692;SDS011;59524;43.000;-0.216;2022-09-01T01:08:33;9.18;;;6.85;;
71692;SDS011;59524;43.000;-0.216;2022-09-01T01:11:02;13.73;;;7.05;;
71692;SDS011;59524;43.000;-0.216;2022-09-01T01:13:29;11.05;;;6.68;;
71692;SDS011;59524;43.000;-0.216;2022-09-01T01:16:01;8.70;;;6.75;;
71692;SDS011;59524;43.000;-0.216;2022-09-01T01:18:28;8.15;;;6.45;;
71692;SDS011;59524;43.000;-0.216;2022-09-01T01:21:05;7.07;;;6.38;;
71692;SDS011;59524;43.000;-0.216;2022-09-01T01:23:56;9.18;;;6.20;;
71692;SDS011;59524;43.000;-0.216;2022-09-01T01:31:20;8.63;;;6.35;;
71692;SDS011;59524;43.000;-0.216;2022-09-01T01:33:49;7.95;;;6.30;;
71692;SDS011;59524;43.000;-0.216;2022-09-01T01:38:43;7.85;;;5.68;;
71692;SDS011;59524;43.000;-0.216;2022-09-01T01:41:11;9.15;;;6.25;;
71692;SDS011;59524;43.000;-0.216;2022-09-01T01:43:39;7.90;;;6.43;;
71692;SDS011;59524;43.000;-0.216;2022-09-01T01:46:06;6.93;;;6.13;;
71692;SDS011;59524;43.000;-0.216;2022-09-01T01:48:33;6.47;;;5.88;;
71692;SDS011;59524;43.000;-0.216;2022-09-01T01:51:02;5.90;;;5.25;;
71692;SDS011;59524;43.000;-0.216;2022-09-01T01:53:29;7.03;;;5.93;;
71692;SDS011;59524;43.000;-0.216;2022-09-01T01:55:56;5.78;;;5.10;;
71692;SDS011;59524;43.000;-0.216;2022-09-01T01:58:25;7.18;;;5.95;;
71692;SDS011;59524;43.000;-0.216;2022-09-01T02:00:54;7.60;;;5.90;;
71692;SDS011;59524;43.000;-0.216;2022-09-01T02:03:22;7.55;;;5.93;;
71692;SDS011;59524;43.000;-0.216;2022-09-01T02:05:50;7.95;;;6.45;;
71692;SDS011;59524;43.000;-0.216;2022-09-01T02:08:17;7.55;;;5.78;;
71692;SDS011;59524;43.000;-0.216;2022-09-01T02:10:47;9.55;;;5.90;;
71692;SDS011;59524;43.000;-0.216;2022-09-01T02:13:15;7.63;;;6.18;;
71692;SDS011;59524;43.000;-0.216;2022-09-01T02:15:44;9.30;;;6.15;;
71692;SDS011;59524;43.000;-0.216;2022-09-01T02:18:16;7.55;;;6.35;;
71692;SDS011;59524;43.000;-0.216;2022-09-01T02:20:43;7.68;;;5.72;;
71692;SDS011;59524;43.000;-0.216;2022-09-01T02:23:10;9.50;;;6.68;;
71692;SDS011;59524;43.000;-0.216;2022-09-01T02:25:38;90.65;;;7.82;;
71692;SDS011;59524;43.000;-0.216;2022-09-01T02:28:07;10.50;;;5.80;;
71692;SDS011;59524;43.000;-0.216;2022-09-01T02:30:34;8.32;;;5.90;;
71692;SDS011;59524;43.000;-0.216;2022-09-01T02:33:03;7.00;;;5.78;;
71692;SDS011;59524;43.000;-0.216;2022-09-01T02:35:30;8.25;;;6.22;;
71692;SDS011;59524;43.000;-0.216;2022-09-01T02:37:59;7.13;;;6.38;;
71692;SDS011;59524;43.000;-0.216;2022-09-01T02:40:26;7.63;;;6.30;;
71692;SDS011;59524;43.000;-0.216;2022-09-01T02:42:55;7.22;;;6.03;;
71692;SDS011;59524;43.000;-0.216;2022-09-01T02:45:23;5.88;;;5.25;;
71692;SDS011;59524;43.000;-0.216;2022-09-01T02:47:49;6.55;;;5.47;;
71692;SDS011;59524;43.000;-0.216;2022-09-01T02:50:16;6.70;;;5.38;;
71692;SDS011;59524;43.000;-0.216;2022-09-01T02:52:44;7.25;;;5.50;;
71692;SDS011;59524;43.000;-0.216;2022-09-01T02:55:14;10.90;;;5.03;;
71692;SDS011;59524;43.000;-0.216;2022-09-01T02:57:45;10.52;;;5.40;;
71692;SDS011;59524;43.000;-0.216;2022-09-01T03:00:14;6.10;;;5.50;;
71692;SDS011;59524;43.000;-0.216;2022-09-01T03:03:00;5.82;;;5.25;;
71692;SDS011;59524;43.000;-0.216;2022-09-01T03:05:28;6.03;;;5.43;;
71692;SDS011;59524;43.000;-0.216;2022-09-01T03:07:57;6.25;;;4.75;;
71692;SDS011;59524;43.000;-0.216;2022-09-01T03:10:25;11.10;;;5.85;;
71692;SDS011;59524;43.000;-0.216;2022-09-01T03:12:55;13.93;;;5.90;;
71692;SDS011;59524;43.000;-0.216;2022-09-01T03:15:22;43.92;;;6.43;;
71692;SDS011;59524;43.000;-0.216;2022-09-01T03:17:49;38.55;;;7.13;;
71692;SDS011;59524;43.000;-0.216;2022-09-01T03:20:16;250.48;;;12.43;;
71692;SDS011;59524;43.000;-0.216;2022-09-01T03:22:45;420.17;;;18.80;;
71692;SDS011;59524;43.000;-0.216;2022-09-01T03:25:12;421.73;;;17.63;;
71692;SDS011;59524;43.000;-0.216;2022-09-01T03:27:38;474.35;;;23.23;;
71692;SDS011;59524;43.000;-0.216;2022-09-01T03:30:05;494.70;;;21.30;;
71692;SDS011;59524;43.000;-0.216;2022-09-01T03:32:32;334.58;;;14.88;;
71692;SDS011;59524;43.000;-0.216;2022-09-01T03:34:58;301.40;;;14.35;;
71692;SDS011;59524;43.000;-0.216;2022-09-01T03:37:25;283.33;;;10.63;;
71692;SDS011;59524;43.000;-0.216;2022-09-01T03:39:52;570.53;;;23.52;;
71692;SDS011;59524;43.000;-0.216;2022-09-01T03:42:19;438.60;;;18.52;;
71692;SDS011;59524;43.000;-0.216;2022-09-01T03:44:50;362.88;;;17.35;;
71692;SDS011;59524;43.000;-0.216;2022-09-01T03:47:19;509.77;;;20.02;;
71692;SDS011;59524;43.000;-0.216;2022-09-01T03:49:46;461.88;;;18.88;;
71692;SDS011;59524;43.000;-0.216;2022-09-01T03:52:15;634.40;;;28.33;;
71692;SDS011;59524;43.000;-0.216;2022-09-01T03:54:42;546.40;;;22.70;;
71692;SDS011;59524;43.000;-0.216;2022-09-01T03:57:10;568.50;;;23.63;;
71692;SDS011;59524;43.000;-0.216;2022-09-01T03:59:38;602.13;;;27.13;;
71692;SDS011;59524;43.000;-0.216;2022-09-01T04:02:08;373.15;;;15.30;;
71692;SDS011;59524;43.000;-0.216;2022-09-01T04:04:35;431.20;;;20.50;;
71692;SDS011;59524;43.000;-0.216;2022-09-01T04:07:02;324.83;;;13.57;;
71692;SDS011;59524;43.000;-0.216;2022-09-01T04:09:31;262.33;;;13.55;;
71692;SDS011;59524;43.000;-0.216;2022-09-01T04:11:58;502.42;;;23.35;;
71692;SDS011;59524;43.000;-0.216;2022-09-01T04:14:24;292.60;;;14.98;;
71692;SDS011;59524;43.000;-0.216;2022-09-01T04:16:52;313.80;;;11.25;;
71692;SDS011;59524;43.000;-0.216;2022-09-01T04:19:37;440.50;;;18.48;;
71692;SDS011;59524;43.000;-0.216;2022-09-01T04:22:04;547.25;;;22.95;;
71692;SDS011;59524;43.000;-0.216;2022-09-01T04:24:32;482.05;;;22.15;;
71692;SDS011;59524;43.000;-0.216;2022-09-01T04:27:00;416.50;;;18.75;;
71692;SDS011;59524;43.000;-0.216;2022-09-01T04:29:27;273.42;;;12.77;;
71692;SDS011;59524;43.000;-0.216;2022-09-01T04:31:54;530.70;;;22.33;;
71692;SDS011;59524;43.000;-0.216;2022-09-01T04:34:21;395.50;;;18.65;;
71692;SDS011;59524;43.000;-0.216;2022-09-01T04:36:49;416.52;;;19.50;;
71692;SDS011;59524;43.000;-0.216;2022-09-01T04:39:19;345.83;;;15.63;;
71692;SDS011;59524;43.000;-0.216;2022-09-01T04:41:45;374.13;;;17.65;;
71692;SDS011;59524;43.000;-0.216;2022-09-01T04:44:13;493.27;;;23.60;;
71692;SDS011;59524;43.000;-0.216;2022-09-01T04:46:42;340.77;;;14.60;;
71692;SDS011;59524;43.000;-0.216;2022-09-01T04:49:11;380.13;;;17.27;;
71692;SDS011;59524;43.000;-0.216;2022-09-01T04:51:45;418.65;;;15.02;;
71692;SDS011;59524;43.000;-0.216;2022-09-01T04:54:12;453.15;;;20.35;;
71692;SDS011;59524;43.000;-0.216;2022-09-01T04:56:40;441.10;;;18.48;;
71692;SDS011;59524;43.000;-0.216;2022-09-01T04:59:08;616.65;;;28.77;;
71692;SDS011;59524;43.000;-0.216;2022-09-01T05:01:35;528.20;;;19.67;;
71692;SDS011;59524;43.000;-0.216;2022-09-01T05:04:12;469.75;;;21.85;;
71692;SDS011;59524;43.000;-0.216;2022-09-01T05:06:43;328.45;;;16.13;;
71692;SDS011;59524;43.000;-0.216;2022-09-01T05:09:11;513.75;;;22.85;;
71692;SDS011;59524;43.000;-0.216;2022-09-01T05:11:38;517.65;;;21.60;;
71692;SDS011;59524;43.000;-0.216;2022-09-01T05:14:05;453.30;;;21.02;;
71692;SDS011;59524;43.000;-0.216;2022-09-01T05:16:33;466.23;;;20.33;;
71692;SDS011;59524;43.000;-0.216;2022-09-01T05:19:00;334.20;;;20.75;;
71692;SDS011;59524;43.000;-0.216;2022-09-01T05:21:27;421.70;;;21.63;;
71692;SDS011;59524;43.000;-0.216;2022-09-01T05:23:54;451.73;;;22.80;;
71692;SDS011;59524;43.000;-0.216;2022-09-01T05:26:22;455.40;;;21.70;;
71692;SDS011;59524;43.000;-0.216;2022-09-01T05:28:51;310.20;;;15.90;;
71692;SDS011;59524;43.000;-0.216;2022-09-01T05:31:20;340.23;;;15.98;;
71692;SDS011;59524;43.000;-0.216;2022-09-01T05:33:48;344.85;;;15.75;;
71692;SDS011;59524;43.000;-0.216;2022-09-01T05:36:16;552.88;;;26.38;;
71692;SDS011;59524;43.000;-0.216;2022-09-01T05:38:44;560.08;;;27.98;;
71692;SDS011;59524;43.000;-0.216;2022-09-01T05:41:13;360.58;;;16.27;;
71692;SDS011;59524;43.000;-0.216;2022-09-01T05:43:41;432.48;;;20.90;;
71692;SDS011;59524;43.000;-0.216;2022-09-01T05:46:12;322.45;;;14.85;;
71692;SDS011;59524;43.000;-0.216;2022-09-01T05:48:42;305.20;;;13.68;;
71692;SDS011;59524;43.000;-0.216;2022-09-01T05:51:09;320.85;;;13.13;;
71692;SDS011;59524;43.000;-0.216;2022-09-01T05:53:36;340.42;;;16.85;;
71692;SDS011;59524;43.000;-0.216;2022-09-01T05:56:05;335.15;;;14.40;;
71692;SDS011;59524;43.000;-0.216;2022-09-01T05:58:33;475.05;;;19.65;;
71692;SDS011;59524;43.000;-0.216;2022-09-01T06:01:01;369.58;;;16.20;;
71692;SDS011;59524;43.000;-0.216;2022-09-01T06:03:27;203.63;;;11.00;;
71692;SDS011;59524;43.000;-0.216;2022-09-01T06:05:55;305.77;;;14.77;;
71692;SDS011;59524;43.000;-0.216;2022-09-01T06:08:26;167.77;;;9.73;;
71692;SDS011;59524;43.000;-0.216;2022-09-01T06:10:53;118.40;;;9.35;;
71692;SDS011;59524;43.000;-0.216;2022-09-01T06:13:20;33.95;;;9.00;;
71692;SDS011;59524;43.000;-0.216;2022-09-01T06:15:48;15.38;;;8.50;;
71692;SDS011;59524;43.000;-0.216;2022-09-01T06:18:14;41.78;;;9.02;;
71692;SDS011;59524;43.000;-0.216;2022-09-01T06:20:43;13.77;;;8.45;;
71692;SDS011;59524;43.000;-0.216;2022-09-01T06:23:10;12.80;;;8.38;;
71692;SDS011;59524;43.000;-0.216;2022-09-01T06:25:40;26.70;;;8.63;;
71692;SDS011;59524;43.000;-0.216;2022-09-01T06:28:12;177.10;;;11.45;;
71692;SDS011;59524;43.000;-0.216;2022-09-01T06:30:39;161.82;;;10.00;;
71692;SDS011;59524;43.000;-0.216;2022-09-01T06:33:07;49.60;;;8.70;;
71692;SDS011;59524;43.000;-0.216;2022-09-01T06:35:34;10.90;;;7.97;;
71692;SDS011;59524;43.000;-0.216;2022-09-01T06:38:01;22.75;;;8.88;;
71692;SDS011;59524;43.000;-0.216;2022-09-01T06:40:29;15.05;;;8.40;;
71692;SDS011;59524;43.000;-0.216;2022-09-01T06:42:57;14.55;;;9.38;;
71692;SDS011;59524;43.000;-0.216;2022-09-01T06:45:26;15.77;;;9.90;;
71692;SDS011;59524;43.000;-0.216;2022-09-01T06:47:53;16.63;;;9.50;;
71692;SDS011;59524;43.000;-0.216;2022-09-01T06:50:22;14.23;;;9.50;;
71692;SDS011;59524;43.000;-0.216;2022-09-01T06:52:49;12.52;;;9.25;;
71692;SDS011;59524;43.000;-0.216;2022-09-01T06:55:25;11.93;;;8.68;;
71692;SDS011;59524;43.000;-0.216;2022-09-01T06:57:56;18.80;;;9.05;;
71692;SDS011;59524;43.000;-0.216;2022-09-01T07:00:23;14.40;;;8.77;;
71692;SDS011;59524;43.000;-0.216;2022-09-01T07:02:53;12.93;;;7.72;;
71692;SDS011;59524;43.000;-0.216;2022-09-01T07:05:20;11.25;;;8.00;;
71692;SDS011;59524;43.000;-0.216;2022-09-01T07:07:48;9.82;;;7.50;;
71692;SDS011;59524;43.000;-0.216;2022-09-01T07:10:16;11.60;;;7.57;;
71692;SDS011;59524;43.000;-0.216;2022-09-01T07:12:47;9.95;;;7.50;;
71692;SDS011;59524;43.000;-0.216;2022-09-01T07:15:14;10.68;;;7.22;;
71692;SDS011;59524;43.000;-0.216;2022-09-01T07:17:46;10.55;;;7.65;;
71692;SDS011;59524;43.000;-0.216;2022-09-01T07:20:15;10.85;;;7.75;;
71692;SDS011;59524;43.000;-0.216;2022-09-01T07:22:41;10.50;;;7.30;;
71692;SDS011;59524;43.000;-0.216;2022-09-01T07:25:08;8.98;;;7.03;;
71692;SDS011;59524;43.000;-0.216;2022-09-01T07:27:37;8.73;;;7.35;;
71692;SDS011;59524;43.000;-0.216;2022-09-01T07:30:04;10.85;;;7.40;;
71692;SDS011;59524;43.000;-0.216;2022-09-01T07:32:35;10.77;;;7.95;;
71692;SDS011;59524;43.000;-0.216;2022-09-01T07:35:02;9.70;;;7.72;;
71692;SDS011;59524;43.000;-0.216;2022-09-01T07:37:34;9.52;;;7.43;;
71692;SDS011;59524;43.000;-0.216;2022-09-01T07:40:03;9.60;;;6.75;;
71692;SDS011;59524;43.000;-0.216;2022-09-01T07:42:31;9.25;;;7.75;;
71692;SDS011;59524;43.000;-0.216;2022-09-01T07:44:58;10.80;;;8.15;;
71692;SDS011;59524;43.000;-0.216;2022-09-01T07:47:25;13.73;;;8.20;;
71692;SDS011;59524;43.000;-0.216;2022-09-01T07:49:54;11.52;;;8.55;;
71692;SDS011;59524;43.000;-0.216;2022-09-01T07:52:21;13.02;;;8.05;;
71692;SDS011;59524;43.000;-0.216;2022-09-01T07:54:47;12.30;;;7.75;;
71692;SDS011;59524;43.000;-0.216;2022-09-01T07:57:14;9.50;;;7.38;;
71692;SDS011;59524;43.000;-0.216;2022-09-01T07:59:41;11.13;;;7.82;;
71692;SDS011;59524;43.000;-0.216;2022-09-01T08:02:07;12.13;;;7.57;;
71692;SDS011;59524;43.000;-0.216;2022-09-01T08:04:34;11.90;;;7.80;;
71692;SDS011;59524;43.000;-0.216;2022-09-01T08:07:01;11.90;;;8.68;;
71692;SDS011;59524;43.000;-0.216;2022-09-01T08:09:27;11.45;;;7.90;;
71692;SDS011;59524;43.000;-0.216;2022-09-01T08:11:54;11.23;;;7.90;;
71692;SDS011;59524;43.000;-0.216;2022-09-01T08:14:20;13.07;;;8.48;;
71692;SDS011;59524;43.000;-0.216;2022-09-01T08:16:47;13.25;;;8.23;;
